Flight Track Log - Related Links

Times and Time Zones

All times are in EST time to prevent confusion due to time zone crossing. See the N301DM flight status page for this flight to view local times or setup timezone preferences in your user account.

Time Position Orientation Groundspeed Altitude Reporting Facility
EST Latitude Longitude Course Direction KTS MPH feet Rate Location/Type
05:18PM 38.3250 -77.5025 257° West 119 137 8,700  Level Washington Center
05:19PM 38.3158 -77.5472 255° West 124 143 10,000 706 Climbing Washington Center
05:20PM 38.5935 -77.7968 314° West  Level FlightAware Approximate
05:20PM 38.3025 -77.5894 248° West 124 143 10,100  Level Washington Center
05:21PM 38.6333 -77.8515 270° West  Level FlightAware Approximate
05:21PM 38.2914 -77.6314 251° West 129 148 10,100  Level Washington Center
05:22PM 38.2803 -77.6786 253° West 129 148 11,100 1,475 Climbing Washington Center
05:23PM 38.2711 -77.7208 255° West 129 148 13,000 1,884 Climbing Washington Center
05:24PM 38.2581 -77.7600 247° West 129 148 14,900 1,918 Climbing Washington Center
05:25PM 38.2489 -77.7967 252° West 129 148 16,900 1,916 Climbing Washington Center
05:26PM 38.2378 -77.8389 251° West 129 148 18,700 1,563 Climbing Washington Center
05:27PM 38.2264 -77.8806 251° West 129 148 20,000 639 Climbing Washington Center
05:28PM 38.2131 -77.9358 253° West 139 160 20,000 252 Level Washington Center
05:29PM 38.1994 -77.9908 253° West 159 183 20,500 504 Climbing Washington Center
05:30PM 38.1653 -78.0189 213° Southwest 153 176 21,000 1,033 Climbing Washington Center
05:31PM 38.1172 -78.0331 193° South 161 185 22,600 992 Climbing Washington Center
05:32PM 38.0689 -78.0525 198° South 175 201 23,000 203 Climbing Washington Center
05:33PM 38.0183 -78.0694 195° South 200 230 23,000 958 Level Washington Center
05:34PM 37.9681 -78.0836 193° South 208 239 24,900 1,488 Climbing Washington Center
05:35PM 37.9281 -78.0953 193° South 179 206 26,000 545 Climbing Washington Center
05:36PM 37.8819 -78.1150 199° South 174 200 26,000  Level Washington Center
05:37PM 37.8272 -78.1367 197° South 187 215 26,000  Level Washington Center
05:38PM 37.7706 -78.1558 195° South 201 231 26,000  Level Washington Center
05:39PM 37.7158 -78.1775 197° South 212 244 26,000  Level Washington Center
05:40PM 37.6592 -78.1967 195° South 212 244 26,000  Level Washington Center
05:41PM 37.5961 -78.2181 195° South 207 238 26,000  Level Washington Center
05:42PM 37.5414 -78.2397 197° South 207 238 26,000  Level Washington Center
05:43PM 37.4825 -78.2614 196° South 212 244 26,000  Level Washington Center
05:44PM 37.4258 -78.2775 193° South 212 244 26,000  Level Washington Center
05:45PM 37.3669 -78.2992 196° South 212 244 26,000  Level Washington Center
05:46PM 37.3164 -78.3181 197° South 212 244 26,000  Level Washington Center
05:47PM 37.2594 -78.3397 197° South 212 244 26,000  Level Washington Center
05:48PM 37.2006 -78.3583 194° South 212 244 26,000  Level Washington Center
05:49PM 37.1461 -78.3772 195° South 212 244 26,000  Level Washington Center
05:50PM 37.0831 -78.3983 195° South 212 244 26,000  Level Washington Center
05:51PM 37.0261 -78.4172 195° South 212 244 26,000  Level Washington Center
05:52PM 36.9694 -78.4383 197° South 212 244 26,000  Level Washington Center
05:53PM 36.9125 -78.4597 197° South 212 244 26,000  Level Washington Center
05:54PM 36.8683 -78.4764 197° South 212 244 26,000  Level Washington Center
05:55PM 36.8011 -78.4944 192° South 212 244 26,000  Level Washington Center
05:56PM 36.7422 -78.5156 196° South 217 250 26,000  Level Washington Center
05:57PM 36.6853 -78.5369 197° South 217 250 26,000  Level Washington Center
05:58PM 36.6283 -78.5606 198° South 217 250 26,000  Level Washington Center
05:59PM 36.5717 -78.5792 195° South 217 250 26,000  Level Washington Center
06:00PM 36.5147 -78.6003 197° South 222 255 26,000  Level Washington Center
06:01PM 36.4558 -78.6186 194° South 222 255 26,000  Level Washington Center
06:02PM 36.3969 -78.6394 196° South 222 255 26,000  Level Washington Center
06:03PM 36.3400 -78.6581 195° South 222 255 26,000  Level Washington Center
06:04PM 36.2833 -78.6789 197° South 222 255 26,000  Level Washington Center
06:05PM 36.2222 -78.6969 193° South 222 255 26,000  Level Washington Center
06:06PM 36.1675 -78.7181 197° South 222 255 26,000  Level Washington Center
06:07PM 36.1083 -78.7389 196° South 222 255 26,000  Level Washington Center
06:08PM 36.0494 -78.7569 194° South 222 255 26,000  Level Washington Center
06:09PM 35.9906 -78.7803 198° South 227 261 26,000  Level Washington Center
06:10PM 35.9317 -78.7986 194° South 227 261 26,000  Level Washington Center
06:11PM 35.8728 -78.8167 194° South 227 261 26,000  Level Washington Center
06:12PM 35.8117 -78.8397 197° South 227 261 26,000  Level Washington Center
06:13PM 35.7528 -78.8578 194° South 227 261 26,000  Level Washington Center
06:14PM 35.6853 -78.8806 195° South 227 261 26,000  Level Washington Center
06:15PM 35.6264 -78.9011 196° South 227 261 26,000  Level Washington Center
06:16PM 35.5672 -78.9192 194° South 227 261 26,000  Level Washington Center
06:17PM 35.5083 -78.9397 196° South 227 261 26,000  Level Washington Center
06:18PM 35.4494 -78.9578 194° South 227 261 26,000  Level Washington Center
06:19PM 35.3903 -78.9806 197° South 227 261 26,000  Level Washington Center
06:20PM 35.3336 -78.9986 195° South 227 261 26,000  Level Washington Center
06:21PM 35.2725 -79.0189 195° South 227 261 26,000  Level Washington Center
06:22PM 35.2156 -79.0369 195° South 227 261 26,000  Level Washington Center
06:23PM 35.1544 -79.0572 195° South 227 261 26,000  Level Washington Center
06:24PM 35.0956 -79.0747 194° South 227 261 26,000  Level Washington Center
06:25PM 35.0364 -79.0950 196° South 227 261 26,000  Level Washington Center
06:26PM 34.9775 -79.1153 196° South 222 255 26,000  Level Washington Center
06:27PM 34.9164 -79.1356 195° South 222 255 26,000  Level Washington Center
06:28PM 34.8594 -79.1533 194° South 222 255 26,000  Level Washington Center
06:29PM 34.8006 -79.1708 194° South 222 255 26,000  Level Washington Center
06:31PM 34.6694 -79.2147 195° South 225 259 26,000  Level Jacksonville Center
06:32PM 34.6075 -79.2350 195° South 220 253 26,000  Level Jacksonville Center
06:33PM 34.5475 -79.2528 194° South 220 253 26,000  Level Jacksonville Center
06:34PM 34.4878 -79.2778 199° South 225 259 26,000  Level Jacksonville Center
06:35PM 34.4278 -79.2981 196° South 225 259 26,000  Level Jacksonville Center
06:36PM 34.3681 -79.3206 197° South 225 259 26,000 -50 Level Jacksonville Center
06:37PM 34.3100 -79.3381 194° South 225 259 25,900 -200 Descending Jacksonville Center
06:38PM 34.2500 -79.3581 195° South 225 259 25,600 -350 Descending Jacksonville Center
06:39PM 34.1797 -79.3811 195° South 225 259 25,200 -350 Descending Jacksonville Center
06:40PM 34.1197 -79.3983 193° South 225 259 24,900 -350 Descending Jacksonville Center
06:41PM 34.0619 -79.4158 194° South 219 252 24,500 -650 Descending Jacksonville Center
06:42PM 34.0058 -79.4306 192° South 219 252 23,600 -1,000 Descending Jacksonville Center
06:43PM 33.9481 -79.4478 194° South 219 252 22,500 -1,150 Descending Jacksonville Center
06:44PM 33.8903 -79.4700 198° South 219 252 21,300 -1,250 Descending Jacksonville Center
06:45PM 33.8281 -79.4875 193° South 219 252 20,000 -1,250 Descending Jacksonville Center
06:46PM 33.7742 -79.5047 195° South 219 252 18,800 -1,250 Descending Jacksonville Center
06:47PM 33.7206 -79.5217 195° South 213 245 17,500 -1,200 Descending Jacksonville Center
06:48PM 33.6708 -79.5386 196° South 201 231 16,400 -1,100 Descending Jacksonville Center
06:49PM 33.6211 -79.5528 193° South 196 226 15,300 -1,100 Descending Jacksonville Center
06:50PM 33.5694 -79.5697 195° South 196 226 14,200 -1,150 Descending Jacksonville Center
06:51PM 33.5197 -79.5867 196° South 196 226 13,000 -1,200 Descending Jacksonville Center
06:52PM 33.4722 -79.6008 194° South 190 219 11,800 -1,050 Descending Jacksonville Center
06:53PM 33.4225 -79.6175 196° South 185 213 10,900 -500 Descending Jacksonville Center
06:54PM 33.3769 -79.6342 197° South 185 213 10,800 -450 Descending Jacksonville Center
06:55PM 33.3294 -79.6558 201° Southwest 185 213 10,000 -900 Descending Jacksonville Center
06:56PM 33.2819 -79.6750 199° South 185 213 9,000 -1,000 Descending Jacksonville Center
06:57PM 33.2367 -79.6989 204° Southwest 185 213 8,000 -1,050 Descending Jacksonville Center
06:58PM 33.1914 -79.7206 202° Southwest 185 213 6,900 -1,150 Descending Jacksonville Center
06:59PM 33.1461 -79.7419 202° Southwest 185 213 5,700 -1,200 Descending Jacksonville Center
07:01PM 33.0592 -79.7563 199° South  Level Estimated
07:08PM 32.8978 -79.7829 140° Southeast  Level Estimated
07:09PM 32.8978 -79.7829 140° Southeast  Level Estimated
07:10PM 32.8978 -79.7829 140° Southeast  Level Estimated

Login

Don't have an account? Register now (free) for customized features, flight alerts, and more!